Humidity-temperature Sensor

Selected Measurement Type: Relative Humidity

 
Relative Humidity [%]     6 entries per hour
Showing data from 1/8/2017 (00:00:00 Z) to 1/1/2017 (00:01:00 Z)
Previous Next [ Day | 3-Days | 7-Days ]
First Last
Prev [ Day | 3-Days | 7-Days ] Next
First Last

Start Time:     :
End Time:     :     
Time (in GMT) :00 :50 :40 :30 :20 :10
Previous Next [ Day | 3-Days | 7-Days ]
First Last
Prev [ Day | 3-Days | 7-Days ] Next
First Last


123 => good data
MM => data is determined as missing
-- => data not received/configured
Back to Top Back to Top
1/8/2017 00:00 to 23:10 72.90 73.31 74.58 75.07 76.06 75.57
1/7/2017 23:00 to 22:10 76.70 76.25 75.36 74.47 74.98 74.30
1/7/2017 22:00 to 21:10 74.45 75.57 76.12 75.72 75.21 74.70
1/7/2017 21:00 to 20:10 74.15 74.79 73.81 74.18 75.28 74.03
1/7/2017 20:00 to 19:10 74.68 75.15 75.70 74.85 75.45 75.45
1/7/2017 19:00 to 18:10 75.30 76.08 76.00 75.34 75.24 75.60
1/7/2017 18:00 to 17:10 75.32 74.47 74.30 73.60 74.71 74.96
1/7/2017 17:00 to 16:10 75.42 75.57 75.17 74.98 74.90 75.91
1/7/2017 16:00 to 15:10 75.87 75.57 76.12 75.59 76.12 76.93
1/7/2017 15:00 to 14:10 77.25 76.51 77.46 77.29 77.29 77.61
1/7/2017 14:00 to 13:10 77.35 76.59 76.57 76.55 76.97 76.84
1/7/2017 13:00 to 12:10 77.33 77.56 76.13 77.06 75.55 76.76
1/7/2017 12:00 to 11:10 76.51 75.77 75.76 75.64 75.70 76.04
1/7/2017 11:00 to 10:10 75.62 76.68 77.44 78.28 78.10 78.18
1/7/2017 10:00 to 9:10 78.29 77.54 78.28 78.54 78.46 78.58
1/7/2017 09:00 to 8:10 77.88 78.75 78.82 79.30 79.53 79.28
1/7/2017 08:00 to 7:10 79.39 77.88 78.62 78.96 78.54 78.50
1/7/2017 07:00 to 6:10 78.73 77.44 77.99 77.44 77.59 77.01
1/7/2017 06:00 to 5:10 76.91 77.20 77.82 78.03 77.74 76.29
1/7/2017 05:00 to 4:10 76.68 76.67 77.16 77.40 77.61 78.18
1/7/2017 04:00 to 3:10 77.57 77.01 77.71 76.06 76.27 76.06
1/7/2017 03:00 to 2:10 76.63 75.87 75.68 75.07 74.94 74.45
1/7/2017 02:00 to 1:10 74.70 74.47 75.34 74.87 73.98 75.07
1/7/2017 01:00 to 0:10 75.51 74.83 74.75 75.87 76.12 76.89
1/7/2017 00:00 to 23:10 76.00 76.25 76.40 76.91 77.20 76.59
1/6/2017 23:00 to 22:10 76.25 76.21 76.08 75.87 76.31 76.27
1/6/2017 22:00 to 21:10 76.36 76.19 75.57 76.70 76.25 75.76
1/6/2017 21:00 to 20:10 76.19 75.64 76.48 76.87 77.10 76.59
1/6/2017 20:00 to 19:10 76.34 76.49 77.18 77.16 76.44 76.40
1/6/2017 19:00 to 18:10 75.96 75.98 76.67 76.65 76.82 76.04
1/6/2017 18:00 to 17:10 76.74 76.38 76.25 76.04 75.53 75.89
1/6/2017 17:00 to 16:10 76.17 75.49 75.38 75.93 77.73 77.37
1/6/2017 16:00 to 15:10 76.67 75.95 76.63 77.14 76.36 76.95
1/6/2017 15:00 to 14:10 76.91 77.12 77.52 76.97 76.74 76.67
1/6/2017 14:00 to 13:10 76.06 77.95 76.53 75.70 76.61 75.62
1/6/2017 13:00 to 12:10 76.32 75.85 75.85 76.80 75.96 76.78
1/6/2017 12:00 to 11:10 76.72 75.74 76.65 77.23 76.12 75.95
1/6/2017 11:00 to 10:10 76.32 76.13 74.75 75.83 76.57 76.57
1/6/2017 10:00 to 9:10 75.60 75.72 76.04 75.26 75.09 76.13
1/6/2017 09:00 to 8:10 75.04 76.59 77.21 78.33 75.24 75.64
1/6/2017 08:00 to 7:10 76.70 76.21 75.45 75.68 75.23 75.70
1/6/2017 07:00 to 6:10 76.34 74.90 74.35 76.17 76.34 76.31
1/6/2017 06:00 to 5:10 75.43 76.55 76.84 76.80 76.34 75.76
1/6/2017 05:00 to 4:10 75.62 75.32 75.85 75.55 75.83 77.01
1/6/2017 04:00 to 3:10 76.85 76.21 76.95 76.72 76.78 76.65
1/6/2017 03:00 to 2:10 76.42 75.98 76.46 76.42 75.98 76.78
1/6/2017 02:00 to 1:10 -- -- -- -- -- --
1/6/2017 01:00 to 0:10 75.26 75.96 76.44 76.53 77.01 76.91
1/6/2017 00:00 to 23:10 77.74 79.58 79.28 79.73 79.37 78.82
1/5/2017 23:00 to 22:10 78.03 78.98 79.66 79.28 79.89 79.47
1/5/2017 22:00 to 21:10 81.29 81.67 82.39 82.25 81.86 81.59
1/5/2017 21:00 to 20:10 80.19 79.26 78.77 79.94 80.15 80.40
1/5/2017 20:00 to 19:10 80.47 80.00 80.40 80.25 80.07 81.93
1/5/2017 19:00 to 18:10 81.61 80.89 81.48 82.01 82.25 82.90
1/5/2017 18:00 to 17:10 82.84 82.22 81.68 81.17 82.75 82.37
1/5/2017 17:00 to 16:10 81.17 80.83 81.65 82.06 81.55 81.63
1/5/2017 16:00 to 15:10 81.72 82.54 83.22 82.99 82.99 82.84
1/5/2017 15:00 to 14:10 -- -- -- -- -- --
1/5/2017 14:00 to 13:10 82.80 82.06 82.14 82.01 82.50 81.29
1/5/2017 13:00 to 12:10 81.02 81.93 81.80 82.06 80.95 80.47
1/5/2017 12:00 to 11:10 80.32 81.23 82.22 82.29 82.52 82.22
1/5/2017 11:00 to 10:10 82.01 81.72 81.42 81.42 81.72 80.62
1/5/2017 10:00 to 9:10 81.17 81.34 81.48 81.86 81.19 80.62
1/5/2017 09:00 to 8:10 80.02 80.23 81.50 81.99 79.81 80.57
1/5/2017 08:00 to 7:10 81.12 80.89 81.86 83.09 82.90 80.89
1/5/2017 07:00 to 6:10 79.96 80.07 81.15 81.51 80.79 79.54
1/5/2017 06:00 to 5:10 81.31 81.21 79.60 80.42 80.64 80.42
1/5/2017 05:00 to 4:10 80.17 79.01 80.64 80.93 79.75 79.56
1/5/2017 04:00 to 3:10 79.35 80.09 79.73 80.85 82.04 80.70
1/5/2017 03:00 to 2:10 80.04 79.15 78.81 78.50 78.37 78.60
1/5/2017 02:00 to 1:10 78.67 80.06 79.28 79.66 79.64 80.85
1/5/2017 01:00 to 0:10 81.57 81.72 81.10 81.70 80.91 81.67
1/5/2017 00:00 to 23:10 81.97 82.12 83.12 83.62 83.84 83.39
1/4/2017 23:00 to 22:10 78.65 78.64 78.65 78.64 77.44 78.16
1/4/2017 22:00 to 21:10 77.71 77.73 76.93 77.01 76.85 77.06
1/4/2017 21:00 to 20:10 76.17 76.85 76.91 76.65 76.57 77.65
1/4/2017 20:00 to 19:10 77.18 77.42 76.87 76.70 76.70 76.93
1/4/2017 19:00 to 18:10 76.10 75.76 76.31 76.91 77.25 75.83
1/4/2017 18:00 to 17:10 74.98 76.27 75.43 75.06 76.02 75.17
1/4/2017 17:00 to 16:10 75.26 73.88 75.96 74.68 76.44 75.91
1/4/2017 16:00 to 15:10 75.40 75.95 75.95 75.74 76.99 76.55
1/4/2017 15:00 to 14:10 75.28 76.00 75.55 74.66 74.70 74.51
1/4/2017 14:00 to 13:10 76.34 74.09 73.39 73.45 73.54 72.31
1/4/2017 13:00 to 12:10 73.60 74.15 73.54 73.26 73.48 73.37
1/4/2017 12:00 to 11:10 73.96 74.22 73.22 73.41 71.97 71.59
1/4/2017 11:00 to 10:10 70.74 71.08 72.01 73.39 73.60 72.57
1/4/2017 10:00 to 9:10 72.42 71.87 73.99 74.39 73.62 74.37
1/4/2017 09:00 to 8:10 73.86 72.08 71.53 72.04 72.31 75.02
1/4/2017 08:00 to 7:10 74.81 73.90 73.12 73.31 73.48 73.46
1/4/2017 07:00 to 6:10 73.29 73.82 72.69 72.42 73.45 73.05
1/4/2017 06:00 to 5:10 74.32 73.96 73.69 75.30 74.22 73.77
1/4/2017 05:00 to 4:10 72.42 72.52 73.62 72.78 74.20 74.18
1/4/2017 04:00 to 3:10 73.69 73.98 73.58 75.53 74.81 72.48
1/4/2017 03:00 to 2:10 71.59 72.12 71.97 71.66 71.74 70.93
1/4/2017 02:00 to 1:10 71.42 70.89 70.87 71.32 71.44 72.21
1/4/2017 01:00 to 0:10 71.48 72.21 72.38 72.23 74.35 74.07
1/4/2017 00:00 to 23:10 73.50 74.60 73.48 73.63 72.80 72.37
1/3/2017 23:00 to 22:10 72.82 72.29 71.95 72.40 72.35 72.93
1/3/2017 22:00 to 21:10 72.86 74.11 74.45 73.54 72.93 73.92
1/3/2017 21:00 to 20:10 72.63 72.59 72.29 73.09 73.73 73.77
1/3/2017 20:00 to 19:10 72.63 71.51 71.89 73.37 73.05 73.35
1/3/2017 19:00 to 18:10 72.95 72.52 71.57 71.49 71.57 72.01
1/3/2017 18:00 to 17:10 71.55 72.23 71.72 71.68 73.09 72.31
1/3/2017 17:00 to 16:10 72.23 70.24 71.44 71.23 72.12 69.20
1/3/2017 16:00 to 15:10 70.07 70.26 70.13 69.18 68.92 69.45
1/3/2017 15:00 to 14:10 69.96 71.13 67.74 70.24 71.66 69.26
1/3/2017 14:00 to 13:10 70.41 69.51 70.19 69.07 68.75 69.87
1/3/2017 13:00 to 12:10 69.18 68.90 70.21 70.81 70.13 71.15
1/3/2017 12:00 to 11:10 71.87 70.76 71.87 71.97 70.55 70.26
1/3/2017 11:00 to 10:10 70.13 71.21 69.68 70.49 71.29 71.10
1/3/2017 10:00 to 9:10 69.73 70.74 70.53 69.69 69.47 69.92
1/3/2017 09:00 to 8:10 71.51 70.58 71.12 70.04 70.24 69.24
1/3/2017 08:00 to 7:10 68.54 69.35 69.56 69.28 69.35 69.18
1/3/2017 07:00 to 6:10 70.02 69.49 69.51 69.28 68.24 70.07
1/3/2017 06:00 to 5:10 70.66 70.51 71.17 69.87 69.26 69.24
1/3/2017 05:00 to 4:10 69.32 70.74 69.87 70.04 69.88 69.32
1/3/2017 04:00 to 3:10 69.85 70.53 70.83 70.85 69.41 70.49
1/3/2017 03:00 to 2:10 70.96 68.73 68.77 68.33 67.84 66.76
1/3/2017 02:00 to 1:10 -- -- -- -- -- --
1/3/2017 01:00 to 0:10 68.99 70.07 69.92 70.00 68.82 68.73
1/3/2017 00:00 to 23:10 69.43 68.73 68.71 68.88 69.15 68.99
1/2/2017 23:00 to 22:10 68.20 68.65 69.94 70.60 68.80 69.45
1/2/2017 22:00 to 21:10 68.82 68.54 69.64 67.65 69.66 69.13
1/2/2017 21:00 to 20:10 68.46 68.58 69.15 71.25 71.27 72.31
1/2/2017 20:00 to 19:10 73.05 72.04 71.95 72.91 71.65 71.72
1/2/2017 19:00 to 18:10 71.48 70.70 70.19 69.90 69.24 70.83
1/2/2017 18:00 to 17:10 68.56 68.46 69.64 70.02 69.71 69.45
1/2/2017 17:00 to 16:10 69.58 68.24 69.07 69.77 69.64 70.76
1/2/2017 16:00 to 15:10 73.62 74.11 73.81 73.75 75.62 74.16
1/2/2017 15:00 to 14:10 -- -- -- -- -- --
1/2/2017 14:00 to 13:10 78.48 78.69 77.37 78.03 78.84 79.71
1/2/2017 13:00 to 12:10 80.19 79.77 78.20 76.70 76.78 77.48
1/2/2017 12:00 to 11:10 76.91 77.88 78.18 78.77 78.29 78.46
1/2/2017 11:00 to 10:10 76.80 77.57 77.92 76.99 78.03 77.31
1/2/2017 10:00 to 9:10 77.97 78.96 78.92 77.80 77.63 77.74
1/2/2017 09:00 to 8:10 78.46 78.16 78.16 77.08 78.41 78.29
1/2/2017 08:00 to 7:10 78.22 77.65 77.80 76.89 77.50 76.76
1/2/2017 07:00 to 6:10 76.57 76.57 77.35 76.80 76.02 75.66
1/2/2017 06:00 to 5:10 75.17 75.55 76.44 76.67 76.15 75.68
1/2/2017 05:00 to 4:10 75.62 76.08 76.21 75.98 74.81 74.41
1/2/2017 04:00 to 3:10 75.26 75.36 77.01 76.82 76.21 76.95
1/2/2017 03:00 to 2:10 75.57 75.23 74.20 73.54 73.33 73.50
1/2/2017 02:00 to 1:10 73.67 73.94 74.45 74.54 73.82 73.22
1/2/2017 01:00 to 0:10 74.66 73.20 72.37 72.54 72.93 73.81
1/2/2017 00:00 to 23:10 74.05 74.09 74.11 75.02 74.28 73.29
1/1/2017 23:00 to 22:10 72.33 72.97 74.01 74.47 74.85 75.24
1/1/2017 22:00 to 21:10 75.96 74.98 75.32 75.00 75.28 74.68
1/1/2017 21:00 to 20:10 73.86 74.22 74.32 74.22 74.39 74.83
1/1/2017 20:00 to 19:10 74.24 73.37 74.79 73.43 73.54 73.54
1/1/2017 19:00 to 18:10 74.92 74.75 76.12 75.95 76.00 77.44
1/1/2017 18:00 to 17:10 79.05 78.58 77.71 77.67 76.48 76.51
1/1/2017 17:00 to 16:10 76.89 77.63 76.08 75.68 76.12 76.89
1/1/2017 16:00 to 15:10 77.56 77.86 76.65 78.24 78.50 78.39
1/1/2017 15:00 to 14:10 78.64 77.25 77.76 77.92 78.46 78.67
1/1/2017 14:00 to 13:10 78.60 78.50 79.03 78.94 78.94 79.64
1/1/2017 13:00 to 12:10 79.45 80.00 81.14 80.32 80.26 80.06
1/1/2017 12:00 to 11:10 80.66 81.00 80.57 79.45 79.54 79.32
1/1/2017 11:00 to 10:10 78.81 80.51 79.60 79.45 78.98 79.00
1/1/2017 10:00 to 9:10 80.02 79.17 79.22 78.39 79.17 80.68
1/1/2017 09:00 to 8:10 79.73 79.96 78.79 77.84 78.03 78.03
1/1/2017 08:00 to 7:10 76.25 78.54 77.52 78.92 78.75 78.73
1/1/2017 07:00 to 6:10 78.67 78.41 79.83 80.59 80.72 79.03
1/1/2017 06:00 to 5:10 78.50 78.88 80.02 79.43 78.88 78.77
1/1/2017 05:00 to 4:10 79.17 76.40 76.80 76.40 77.16 78.28
1/1/2017 04:00 to 3:10 78.03 77.54 76.99 77.59 77.61 79.43
1/1/2017 03:00 to 2:10 79.34 79.11 78.28 78.26 77.88 77.14
1/1/2017 02:00 to 1:10 78.10 77.01 76.72 76.25 75.57 75.85
1/1/2017 01:00 to 0:10 76.87 77.04 77.08 78.31 78.75 78.24